sensor_id;sensor_type;location;lat;lon;timestamp;temperature;humidity
6098;DHT22;3077;50.922;6.584;2023-05-07T00:00:37;15.80;99.90
6098;DHT22;3077;50.922;6.584;2023-05-07T00:03:03;15.70;99.90
6098;DHT22;3077;50.922;6.584;2023-05-07T00:05:28;15.80;99.90
6098;DHT22;3077;50.922;6.584;2023-05-07T00:07:54;15.70;99.90
6098;DHT22;3077;50.922;6.584;2023-05-07T00:10:20;15.70;99.90
6098;DHT22;3077;50.922;6.584;2023-05-07T00:12:45;15.70;99.90
6098;DHT22;3077;50.922;6.584;2023-05-07T00:15:11;15.70;99.90
6098;DHT22;3077;50.922;6.584;2023-05-07T00:17:37;15.60;99.90
6098;DHT22;3077;50.922;6.584;2023-05-07T00:20:03;15.70;99.90
6098;DHT22;3077;50.922;6.584;2023-05-07T00:22:30;15.60;99.90
6098;DHT22;3077;50.922;6.584;2023-05-07T00:24:56;15.60;99.90
6098;DHT22;3077;50.922;6.584;2023-05-07T00:27:22;15.60;99.90
6098;DHT22;3077;50.922;6.584;2023-05-07T00:29:48;15.60;99.90
6098;DHT22;3077;50.922;6.584;2023-05-07T00:32:13;15.60;99.90
6098;DHT22;3077;50.922;6.584;2023-05-07T00:34:39;15.50;99.90
6098;DHT22;3077;50.922;6.584;2023-05-07T00:37:05;15.60;99.90
6098;DHT22;3077;50.922;6.584;2023-05-07T00:39:33;15.60;99.90
6098;DHT22;3077;50.922;6.584;2023-05-07T00:41:59;15.50;99.90
6098;DHT22;3077;50.922;6.584;2023-05-07T00:44:26;15.50;99.90
6098;DHT22;3077;50.922;6.584;2023-05-07T00:46:52;15.40;99.90
6098;DHT22;3077;50.922;6.584;2023-05-07T00:49:18;15.40;99.90
6098;DHT22;3077;50.922;6.584;2023-05-07T00:51:44;15.40;99.90
6098;DHT22;3077;50.922;6.584;2023-05-07T00:54:10;15.40;99.90
6098;DHT22;3077;50.922;6.584;2023-05-07T00:56:36;15.50;99.90
6098;DHT22;3077;50.922;6.584;2023-05-07T00:59:03;15.40;99.90
6098;DHT22;3077;50.922;6.584;2023-05-07T01:01:28;15.40;99.90
6098;DHT22;3077;50.922;6.584;2023-05-07T01:03:54;15.40;99.90
6098;DHT22;3077;50.922;6.584;2023-05-07T01:06:23;15.40;99.90
6098;DHT22;3077;50.922;6.584;2023-05-07T01:08:49;15.40;99.90
6098;DHT22;3077;50.922;6.584;2023-05-07T01:11:16;15.40;99.90
6098;DHT22;3077;50.922;6.584;2023-05-07T01:13:44;15.70;99.90
6098;DHT22;3077;50.922;6.584;2023-05-07T01:16:10;15.40;99.90
6098;DHT22;3077;50.922;6.584;2023-05-07T01:18:36;15.40;99.90
6098;DHT22;3077;50.922;6.584;2023-05-07T01:21:04;15.40;99.90
6098;DHT22;3077;50.922;6.584;2023-05-07T01:23:30;15.30;99.90
6098;DHT22;3077;50.922;6.584;2023-05-07T01:25:56;15.30;99.90
6098;DHT22;3077;50.922;6.584;2023-05-07T01:28:22;15.30;99.90
6098;DHT22;3077;50.922;6.584;2023-05-07T01:30:52;15.30;99.90
6098;DHT22;3077;50.922;6.584;2023-05-07T01:33:20;15.30;99.90
6098;DHT22;3077;50.922;6.584;2023-05-07T01:35:52;15.30;99.90
6098;DHT22;3077;50.922;6.584;2023-05-07T01:38:19;15.30;99.90
6098;DHT22;3077;50.922;6.584;2023-05-07T01:40:45;15.30;99.90
6098;DHT22;3077;50.922;6.584;2023-05-07T01:43:12;15.30;99.90
6098;DHT22;3077;50.922;6.584;2023-05-07T01:45:38;15.30;99.90
6098;DHT22;3077;50.922;6.584;2023-05-07T01:48:04;15.30;99.90
6098;DHT22;3077;50.922;6.584;2023-05-07T01:50:30;15.20;99.90
6098;DHT22;3077;50.922;6.584;2023-05-07T01:52:57;15.20;99.90
6098;DHT22;3077;50.922;6.584;2023-05-07T01:55:23;15.20;99.90
6098;DHT22;3077;50.922;6.584;2023-05-07T01:57:48;15.20;99.90
6098;DHT22;3077;50.922;6.584;2023-05-07T02:00:14;15.20;99.90
6098;DHT22;3077;50.922;6.584;2023-05-07T02:02:40;15.10;99.90
6098;DHT22;3077;50.922;6.584;2023-05-07T02:05:06;15.10;99.90
6098;DHT22;3077;50.922;6.584;2023-05-07T02:07:31;15.10;99.90
6098;DHT22;3077;50.922;6.584;2023-05-07T02:09:57;15.00;99.90
6098;DHT22;3077;50.922;6.584;2023-05-07T02:12:23;15.10;99.90
6098;DHT22;3077;50.922;6.584;2023-05-07T02:14:49;15.00;99.90
6098;DHT22;3077;50.922;6.584;2023-05-07T02:17:14;15.00;99.90
6098;DHT22;3077;50.922;6.584;2023-05-07T02:19:40;15.00;99.90
6098;DHT22;3077;50.922;6.584;2023-05-07T02:22:06;14.90;99.90
6098;DHT22;3077;50.922;6.584;2023-05-07T02:24:32;14.90;99.90
6098;DHT22;3077;50.922;6.584;2023-05-07T02:26:57;14.90;99.90
6098;DHT22;3077;50.922;6.584;2023-05-07T02:29:23;14.90;99.90
6098;DHT22;3077;50.922;6.584;2023-05-07T02:31:48;14.90;99.90
6098;DHT22;3077;50.922;6.584;2023-05-07T02:34:18;14.90;99.90
6098;DHT22;3077;50.922;6.584;2023-05-07T02:36:44;14.90;99.90
6098;DHT22;3077;50.922;6.584;2023-05-07T02:39:09;14.90;99.90
6098;DHT22;3077;50.922;6.584;2023-05-07T02:41:35;14.90;99.90
6098;DHT22;3077;50.922;6.584;2023-05-07T02:44:00;14.90;99.90
6098;DHT22;3077;50.922;6.584;2023-05-07T02:46:26;14.90;99.90
6098;DHT22;3077;50.922;6.584;2023-05-07T02:48:52;14.90;99.90
6098;DHT22;3077;50.922;6.584;2023-05-07T02:51:21;14.90;99.90
6098;DHT22;3077;50.922;6.584;2023-05-07T02:53:47;14.80;99.90
6098;DHT22;3077;50.922;6.584;2023-05-07T02:56:13;15.00;99.90
6098;DHT22;3077;50.922;6.584;2023-05-07T02:58:38;14.90;99.90
6098;DHT22;3077;50.922;6.584;2023-05-07T03:01:05;14.80;99.90
6098;DHT22;3077;50.922;6.584;2023-05-07T03:03:31;14.80;99.90
6098;DHT22;3077;50.922;6.584;2023-05-07T03:05:56;14.80;99.90
6098;DHT22;3077;50.922;6.584;2023-05-07T03:08:22;14.70;99.90
6098;DHT22;3077;50.922;6.584;2023-05-07T03:10:48;14.70;99.90
6098;DHT22;3077;50.922;6.584;2023-05-07T03:13:13;14.70;99.90
6098;DHT22;3077;50.922;6.584;2023-05-07T03:15:39;14.70;99.90
6098;DHT22;3077;50.922;6.584;2023-05-07T03:18:05;14.70;99.90
6098;DHT22;3077;50.922;6.584;2023-05-07T03:20:30;14.70;99.90
6098;DHT22;3077;50.922;6.584;2023-05-07T03:22:56;14.70;99.90
6098;DHT22;3077;50.922;6.584;2023-05-07T03:25:22;14.70;99.90
6098;DHT22;3077;50.922;6.584;2023-05-07T03:27:47;14.60;99.90
6098;DHT22;3077;50.922;6.584;2023-05-07T03:30:13;14.60;99.90
6098;DHT22;3077;50.922;6.584;2023-05-07T03:32:39;14.60;99.90
6098;DHT22;3077;50.922;6.584;2023-05-07T03:35:05;14.60;99.90
6098;DHT22;3077;50.922;6.584;2023-05-07T03:37:30;14.60;99.90
6098;DHT22;3077;50.922;6.584;2023-05-07T03:39:56;14.60;99.90
6098;DHT22;3077;50.922;6.584;2023-05-07T03:42:21;14.60;99.90
6098;DHT22;3077;50.922;6.584;2023-05-07T03:44:47;14.60;99.90
6098;DHT22;3077;50.922;6.584;2023-05-07T03:47:13;14.70;99.90
6098;DHT22;3077;50.922;6.584;2023-05-07T03:49:39;14.70;99.90
6098;DHT22;3077;50.922;6.584;2023-05-07T03:52:05;14.70;99.90
6098;DHT22;3077;50.922;6.584;2023-05-07T03:54:31;14.70;99.90
6098;DHT22;3077;50.922;6.584;2023-05-07T03:56:56;14.80;99.90
6098;DHT22;3077;50.922;6.584;2023-05-07T03:59:22;14.80;99.90
6098;DHT22;3077;50.922;6.584;2023-05-07T04:01:48;14.80;99.90
6098;DHT22;3077;50.922;6.584;2023-05-07T04:04:16;14.80;99.90
6098;DHT22;3077;50.922;6.584;2023-05-07T04:06:42;14.70;99.90
6098;DHT22;3077;50.922;6.584;2023-05-07T04:09:07;14.70;99.90
6098;DHT22;3077;50.922;6.584;2023-05-07T04:11:33;14.70;99.90
6098;DHT22;3077;50.922;6.584;2023-05-07T04:13:59;14.60;99.90
6098;DHT22;3077;50.922;6.584;2023-05-07T04:16:24;14.60;99.90
6098;DHT22;3077;50.922;6.584;2023-05-07T04:18:51;14.60;99.90
6098;DHT22;3077;50.922;6.584;2023-05-07T04:21:18;14.60;99.90
6098;DHT22;3077;50.922;6.584;2023-05-07T04:23:45;14.80;99.90
6098;DHT22;3077;50.922;6.584;2023-05-07T04:26:11;14.60;99.90
6098;DHT22;3077;50.922;6.584;2023-05-07T04:28:37;14.60;99.90
6098;DHT22;3077;50.922;6.584;2023-05-07T04:31:03;14.60;99.90
6098;DHT22;3077;50.922;6.584;2023-05-07T04:33:29;14.60;99.90
6098;DHT22;3077;50.922;6.584;2023-05-07T04:35:54;14.60;99.90
6098;DHT22;3077;50.922;6.584;2023-05-07T04:38:20;14.60;99.90
6098;DHT22;3077;50.922;6.584;2023-05-07T04:40:45;14.70;99.90
6098;DHT22;3077;50.922;6.584;2023-05-07T04:43:12;14.70;99.90
6098;DHT22;3077;50.922;6.584;2023-05-07T04:45:38;14.80;99.90
6098;DHT22;3077;50.922;6.584;2023-05-07T04:48:07;14.80;99.90
6098;DHT22;3077;50.922;6.584;2023-05-07T04:50:32;14.80;99.90
6098;DHT22;3077;50.922;6.584;2023-05-07T04:52:58;14.90;99.90
6098;DHT22;3077;50.922;6.584;2023-05-07T04:55:24;14.90;99.90
6098;DHT22;3077;50.922;6.584;2023-05-07T04:57:49;15.00;99.90
6098;DHT22;3077;50.922;6.584;2023-05-07T05:00:15;15.00;99.90
6098;DHT22;3077;50.922;6.584;2023-05-07T05:02:41;15.00;99.90
6098;DHT22;3077;50.922;6.584;2023-05-07T05:05:07;15.10;99.90
6098;DHT22;3077;50.922;6.584;2023-05-07T05:07:33;15.10;99.90
6098;DHT22;3077;50.922;6.584;2023-05-07T05:09:59;15.20;99.90
6098;DHT22;3077;50.922;6.584;2023-05-07T05:12:24;15.20;99.90
6098;DHT22;3077;50.922;6.584;2023-05-07T05:14:50;15.20;99.90
6098;DHT22;3077;50.922;6.584;2023-05-07T05:17:16;15.30;99.90
6098;DHT22;3077;50.922;6.584;2023-05-07T05:19:41;15.30;99.90
6098;DHT22;3077;50.922;6.584;2023-05-07T05:22:07;15.40;99.90
6098;DHT22;3077;50.922;6.584;2023-05-07T05:24:32;15.40;99.90
6098;DHT22;3077;50.922;6.584;2023-05-07T05:26:58;15.50;99.90
6098;DHT22;3077;50.922;6.584;2023-05-07T05:29:27;15.50;99.90
6098;DHT22;3077;50.922;6.584;2023-05-07T05:31:52;15.50;99.90
6098;DHT22;3077;50.922;6.584;2023-05-07T05:34:18;15.50;99.90
6098;DHT22;3077;50.922;6.584;2023-05-07T05:36:45;15.60;99.90
6098;DHT22;3077;50.922;6.584;2023-05-07T05:39:11;15.60;99.90
6098;DHT22;3077;50.922;6.584;2023-05-07T05:41:36;15.60;99.90
6098;DHT22;3077;50.922;6.584;2023-05-07T05:44:02;15.70;99.90
6098;DHT22;3077;50.922;6.584;2023-05-07T05:46:27;15.80;99.90
6098;DHT22;3077;50.922;6.584;2023-05-07T05:48:53;15.90;99.90
6098;DHT22;3077;50.922;6.584;2023-05-07T05:51:18;16.00;99.90
6098;DHT22;3077;50.922;6.584;2023-05-07T05:53:44;16.10;99.90
6098;DHT22;3077;50.922;6.584;2023-05-07T05:56:10;16.10;99.90
6098;DHT22;3077;50.922;6.584;2023-05-07T05:58:35;16.30;99.90
6098;DHT22;3077;50.922;6.584;2023-05-07T06:01:01;16.30;99.90
6098;DHT22;3077;50.922;6.584;2023-05-07T06:03:28;16.40;99.90
6098;DHT22;3077;50.922;6.584;2023-05-07T06:05:53;16.50;99.90
6098;DHT22;3077;50.922;6.584;2023-05-07T06:08:19;16.60;99.90
6098;DHT22;3077;50.922;6.584;2023-05-07T06:10:45;16.70;99.90
6098;DHT22;3077;50.922;6.584;2023-05-07T06:13:10;16.80;99.90
6098;DHT22;3077;50.922;6.584;2023-05-07T06:15:36;16.90;99.90
6098;DHT22;3077;50.922;6.584;2023-05-07T06:18:02;17.00;99.90
6098;DHT22;3077;50.922;6.584;2023-05-07T06:20:28;17.10;99.90
6098;DHT22;3077;50.922;6.584;2023-05-07T06:22:53;17.20;99.90
6098;DHT22;3077;50.922;6.584;2023-05-07T06:25:19;17.30;99.90
6098;DHT22;3077;50.922;6.584;2023-05-07T06:27:45;17.30;99.90
6098;DHT22;3077;50.922;6.584;2023-05-07T06:30:11;17.40;99.90
6098;DHT22;3077;50.922;6.584;2023-05-07T06:32:36;17.40;99.90
6098;DHT22;3077;50.922;6.584;2023-05-07T06:35:02;17.40;99.90
6098;DHT22;3077;50.922;6.584;2023-05-07T06:37:28;17.40;99.90
6098;DHT22;3077;50.922;6.584;2023-05-07T06:39:53;17.50;99.90
6098;DHT22;3077;50.922;6.584;2023-05-07T06:42:19;17.60;99.90
6098;DHT22;3077;50.922;6.584;2023-05-07T06:44:44;17.60;99.90
6098;DHT22;3077;50.922;6.584;2023-05-07T06:47:10;17.70;99.90
6098;DHT22;3077;50.922;6.584;2023-05-07T06:49:36;17.70;99.90
6098;DHT22;3077;50.922;6.584;2023-05-07T06:52:01;17.70;99.90
6098;DHT22;3077;50.922;6.584;2023-05-07T06:54:28;17.80;99.90
6098;DHT22;3077;50.922;6.584;2023-05-07T06:56:54;17.80;99.90
6098;DHT22;3077;50.922;6.584;2023-05-07T06:59:19;17.90;99.90
6098;DHT22;3077;50.922;6.584;2023-05-07T07:01:45;18.00;99.90
6098;DHT22;3077;50.922;6.584;2023-05-07T07:04:11;18.20;99.90
6098;DHT22;3077;50.922;6.584;2023-05-07T07:06:36;18.30;99.90
6098;DHT22;3077;50.922;6.584;2023-05-07T07:09:02;18.40;99.90
6098;DHT22;3077;50.922;6.584;2023-05-07T07:11:27;18.50;99.90
6098;DHT22;3077;50.922;6.584;2023-05-07T07:13:53;18.60;99.90
6098;DHT22;3077;50.922;6.584;2023-05-07T07:16:20;18.70;99.90
6098;DHT22;3077;50.922;6.584;2023-05-07T07:18:46;18.80;99.90
6098;DHT22;3077;50.922;6.584;2023-05-07T07:21:12;18.80;99.90
6098;DHT22;3077;50.922;6.584;2023-05-07T07:23:37;18.90;99.90
6098;DHT22;3077;50.922;6.584;2023-05-07T07:26:03;19.00;99.90
6098;DHT22;3077;50.922;6.584;2023-05-07T07:28:28;19.10;99.90
6098;DHT22;3077;50.922;6.584;2023-05-07T07:30:54;19.20;99.90
6098;DHT22;3077;50.922;6.584;2023-05-07T07:33:19;19.20;99.90
6098;DHT22;3077;50.922;6.584;2023-05-07T07:35:45;19.30;99.90
6098;DHT22;3077;50.922;6.584;2023-05-07T07:38:11;19.50;99.90
6098;DHT22;3077;50.922;6.584;2023-05-07T07:40:36;19.70;99.90
6098;DHT22;3077;50.922;6.584;2023-05-07T07:43:02;19.80;99.90
6098;DHT22;3077;50.922;6.584;2023-05-07T07:45:28;19.90;99.90
6098;DHT22;3077;50.922;6.584;2023-05-07T07:47:54;20.00;99.90
6098;DHT22;3077;50.922;6.584;2023-05-07T07:50:20;20.00;99.90
6098;DHT22;3077;50.922;6.584;2023-05-07T07:52:46;20.20;99.90
6098;DHT22;3077;50.922;6.584;2023-05-07T07:55:11;20.30;99.90
6098;DHT22;3077;50.922;6.584;2023-05-07T07:57:37;20.40;99.90
6098;DHT22;3077;50.922;6.584;2023-05-07T08:00:03;20.60;99.90
6098;DHT22;3077;50.922;6.584;2023-05-07T08:02:29;20.60;99.90
6098;DHT22;3077;50.922;6.584;2023-05-07T08:04:55;20.70;99.90
6098;DHT22;3077;50.922;6.584;2023-05-07T08:07:21;20.70;99.90
6098;DHT22;3077;50.922;6.584;2023-05-07T08:09:48;20.70;99.90
6098;DHT22;3077;50.922;6.584;2023-05-07T08:12:14;20.80;99.90
6098;DHT22;3077;50.922;6.584;2023-05-07T08:14:40;20.80;99.90
6098;DHT22;3077;50.922;6.584;2023-05-07T08:17:05;20.90;99.90
6098;DHT22;3077;50.922;6.584;2023-05-07T08:19:31;20.90;99.90
6098;DHT22;3077;50.922;6.584;2023-05-07T08:21:57;21.00;99.90
6098;DHT22;3077;50.922;6.584;2023-05-07T08:24:23;21.00;99.90
6098;DHT22;3077;50.922;6.584;2023-05-07T08:26:48;21.10;99.90
6098;DHT22;3077;50.922;6.584;2023-05-07T08:29:15;21.10;99.90
6098;DHT22;3077;50.922;6.584;2023-05-07T08:31:40;21.20;99.90
6098;DHT22;3077;50.922;6.584;2023-05-07T08:34:06;21.30;99.90
6098;DHT22;3077;50.922;6.584;2023-05-07T08:36:32;21.50;99.90
6098;DHT22;3077;50.922;6.584;2023-05-07T08:38:57;21.60;99.90
6098;DHT22;3077;50.922;6.584;2023-05-07T08:41:23;21.80;99.90
6098;DHT22;3077;50.922;6.584;2023-05-07T08:43:49;21.90;99.90
6098;DHT22;3077;50.922;6.584;2023-05-07T08:46:22;22.00;99.90
6098;DHT22;3077;50.922;6.584;2023-05-07T08:48:48;22.00;99.90
6098;DHT22;3077;50.922;6.584;2023-05-07T08:51:17;22.00;99.90
6098;DHT22;3077;50.922;6.584;2023-05-07T08:53:43;22.00;99.90
6098;DHT22;3077;50.922;6.584;2023-05-07T08:56:09;22.00;99.90
6098;DHT22;3077;50.922;6.584;2023-05-07T08:58:35;22.00;99.90
6098;DHT22;3077;50.922;6.584;2023-05-07T09:01:08;22.10;99.90
6098;DHT22;3077;50.922;6.584;2023-05-07T09:03:35;22.10;99.90
6098;DHT22;3077;50.922;6.584;2023-05-07T09:06:01;22.20;99.90
6098;DHT22;3077;50.922;6.584;2023-05-07T09:08:27;22.40;99.90
6098;DHT22;3077;50.922;6.584;2023-05-07T09:10:53;22.60;99.90
6098;DHT22;3077;50.922;6.584;2023-05-07T09:13:19;22.80;99.90
6098;DHT22;3077;50.922;6.584;2023-05-07T09:15:45;23.00;99.90
6098;DHT22;3077;50.922;6.584;2023-05-07T09:18:12;23.20;99.90
6098;DHT22;3077;50.922;6.584;2023-05-07T09:20:38;23.50;99.90
6098;DHT22;3077;50.922;6.584;2023-05-07T09:23:05;23.60;99.90
6098;DHT22;3077;50.922;6.584;2023-05-07T09:25:33;23.80;99.90
6098;DHT22;3077;50.922;6.584;2023-05-07T09:28:00;23.80;99.90
6098;DHT22;3077;50.922;6.584;2023-05-07T09:30:32;23.90;99.90
6098;DHT22;3077;50.922;6.584;2023-05-07T09:32:59;24.10;99.90
6098;DHT22;3077;50.922;6.584;2023-05-07T09:35:25;24.10;99.90
6098;DHT22;3077;50.922;6.584;2023-05-07T09:37:56;24.30;99.90
6098;DHT22;3077;50.922;6.584;2023-05-07T09:40:23;24.40;99.90
6098;DHT22;3077;50.922;6.584;2023-05-07T09:42:49;24.40;99.90
6098;DHT22;3077;50.922;6.584;2023-05-07T09:45:16;24.40;99.90
6098;DHT22;3077;50.922;6.584;2023-05-07T09:47:43;24.30;99.90
6098;DHT22;3077;50.922;6.584;2023-05-07T09:50:12;24.30;99.90
6098;DHT22;3077;50.922;6.584;2023-05-07T09:52:40;24.30;99.90
6098;DHT22;3077;50.922;6.584;2023-05-07T09:55:07;24.30;99.90
6098;DHT22;3077;50.922;6.584;2023-05-07T09:57:34;24.20;99.90
6098;DHT22;3077;50.922;6.584;2023-05-07T10:00:01;24.30;99.90
6098;DHT22;3077;50.922;6.584;2023-05-07T10:02:30;24.40;99.90
6098;DHT22;3077;50.922;6.584;2023-05-07T10:04:57;24.40;99.90
6098;DHT22;3077;50.922;6.584;2023-05-07T10:07:25;24.40;99.90
6098;DHT22;3077;50.922;6.584;2023-05-07T10:09:52;24.40;99.90
6098;DHT22;3077;50.922;6.584;2023-05-07T10:12:18;24.60;99.90
6098;DHT22;3077;50.922;6.584;2023-05-07T10:14:45;24.60;99.90
6098;DHT22;3077;50.922;6.584;2023-05-07T10:17:11;24.80;99.90
6098;DHT22;3077;50.922;6.584;2023-05-07T10:19:37;24.80;99.90
6098;DHT22;3077;50.922;6.584;2023-05-07T10:22:05;24.80;99.90
6098;DHT22;3077;50.922;6.584;2023-05-07T10:24:36;24.90;99.90
6098;DHT22;3077;50.922;6.584;2023-05-07T10:27:06;24.90;99.90
6098;DHT22;3077;50.922;6.584;2023-05-07T10:35:01;25.40;99.90
6098;DHT22;3077;50.922;6.584;2023-05-07T10:37:28;25.70;99.90
6098;DHT22;3077;50.922;6.584;2023-05-07T10:39:54;25.80;99.90
6098;DHT22;3077;50.922;6.584;2023-05-07T10:42:20;26.00;99.90
6098;DHT22;3077;50.922;6.584;2023-05-07T10:44:46;26.00;99.90
6098;DHT22;3077;50.922;6.584;2023-05-07T10:47:14;26.00;99.90
6098;DHT22;3077;50.922;6.584;2023-05-07T10:54:42;25.80;99.90
6098;DHT22;3077;50.922;6.584;2023-05-07T10:59:57;25.80;99.90
6098;DHT22;3077;50.922;6.584;2023-05-07T11:02:22;25.70;99.90
6098;DHT22;3077;50.922;6.584;2023-05-07T11:05:23;25.60;99.90
6098;DHT22;3077;50.922;6.584;2023-05-07T11:08:02;25.50;99.90
6098;DHT22;3077;50.922;6.584;2023-05-07T11:13:15;25.30;99.90
6098;DHT22;3077;50.922;6.584;2023-05-07T11:15:43;25.30;99.90
6098;DHT22;3077;50.922;6.584;2023-05-07T11:18:11;25.30;99.90
6098;DHT22;3077;50.922;6.584;2023-05-07T11:20:51;25.40;99.90
6098;DHT22;3077;50.922;6.584;2023-05-07T11:26:08;25.50;99.90
6098;DHT22;3077;50.922;6.584;2023-05-07T11:28:42;25.50;99.90
6098;DHT22;3077;50.922;6.584;2023-05-07T11:31:09;25.40;99.90
6098;DHT22;3077;50.922;6.584;2023-05-07T11:33:35;25.40;99.90
6098;DHT22;3077;50.922;6.584;2023-05-07T11:36:05;25.30;99.90
6098;DHT22;3077;50.922;6.584;2023-05-07T11:38:34;25.30;99.90
6098;DHT22;3077;50.922;6.584;2023-05-07T11:41:00;25.20;99.90
6098;DHT22;3077;50.922;6.584;2023-05-07T11:43:27;25.10;99.90
6098;DHT22;3077;50.922;6.584;2023-05-07T11:45:53;25.00;99.90
6098;DHT22;3077;50.922;6.584;2023-05-07T11:48:21;25.10;99.90
6098;DHT22;3077;50.922;6.584;2023-05-07T11:51:13;25.30;99.90
6098;DHT22;3077;50.922;6.584;2023-05-07T11:53:44;25.50;99.90
6098;DHT22;3077;50.922;6.584;2023-05-07T11:56:12;25.70;99.90
6098;DHT22;3077;50.922;6.584;2023-05-07T11:58:39;25.80;99.90
6098;DHT22;3077;50.922;6.584;2023-05-07T12:01:07;25.80;99.90
6098;DHT22;3077;50.922;6.584;2023-05-07T12:03:34;25.80;99.90
6098;DHT22;3077;50.922;6.584;2023-05-07T12:06:00;25.70;99.90
6098;DHT22;3077;50.922;6.584;2023-05-07T12:08:26;25.70;99.90
6098;DHT22;3077;50.922;6.584;2023-05-07T12:10:51;25.70;99.90
6098;DHT22;3077;50.922;6.584;2023-05-07T12:13:18;25.70;98.90
6098;DHT22;3077;50.922;6.584;2023-05-07T12:15:44;25.60;99.70
6098;DHT22;3077;50.922;6.584;2023-05-07T12:18:11;25.60;99.90
6098;DHT22;3077;50.922;6.584;2023-05-07T12:20:37;25.60;99.90
6098;DHT22;3077;50.922;6.584;2023-05-07T12:23:03;25.50;99.90
6098;DHT22;3077;50.922;6.584;2023-05-07T12:25:35;25.30;99.90
6098;DHT22;3077;50.922;6.584;2023-05-07T12:28:02;25.00;99.90
6098;DHT22;3077;50.922;6.584;2023-05-07T12:30:27;24.80;98.60
6098;DHT22;3077;50.922;6.584;2023-05-07T12:32:54;24.70;99.00
6098;DHT22;3077;50.922;6.584;2023-05-07T12:35:29;24.60;99.90
6098;DHT22;3077;50.922;6.584;2023-05-07T12:37:58;24.50;99.90
6098;DHT22;3077;50.922;6.584;2023-05-07T12:40:35;24.40;99.90
6098;DHT22;3077;50.922;6.584;2023-05-07T12:43:01;24.10;99.90
6098;DHT22;3077;50.922;6.584;2023-05-07T12:45:27;23.90;99.90
6098;DHT22;3077;50.922;6.584;2023-05-07T12:47:53;23.60;99.90
6098;DHT22;3077;50.922;6.584;2023-05-07T12:50:18;23.40;99.90
6098;DHT22;3077;50.922;6.584;2023-05-07T12:52:47;23.10;99.90
6098;DHT22;3077;50.922;6.584;2023-05-07T12:55:17;22.80;99.90
6098;DHT22;3077;50.922;6.584;2023-05-07T12:57:45;22.50;99.90
6098;DHT22;3077;50.922;6.584;2023-05-07T13:00:11;22.20;99.90
6098;DHT22;3077;50.922;6.584;2023-05-07T13:02:39;21.90;99.90
6098;DHT22;3077;50.922;6.584;2023-05-07T13:05:05;21.60;99.90
6098;DHT22;3077;50.922;6.584;2023-05-07T13:07:30;21.30;99.90
6098;DHT22;3077;50.922;6.584;2023-05-07T13:09:56;21.20;99.90
6098;DHT22;3077;50.922;6.584;2023-05-07T13:12:21;20.90;99.90
6098;DHT22;3077;50.922;6.584;2023-05-07T13:14:47;20.70;99.90
6098;DHT22;3077;50.922;6.584;2023-05-07T13:17:13;20.50;99.90
6098;DHT22;3077;50.922;6.584;2023-05-07T13:19:41;20.30;99.90
6098;DHT22;3077;50.922;6.584;2023-05-07T13:22:07;20.00;99.90
6098;DHT22;3077;50.922;6.584;2023-05-07T13:24:32;19.70;99.90
6098;DHT22;3077;50.922;6.584;2023-05-07T13:26:58;19.60;99.90
6098;DHT22;3077;50.922;6.584;2023-05-07T13:29:23;19.20;99.90
6098;DHT22;3077;50.922;6.584;2023-05-07T13:31:58;18.90;99.90
6098;DHT22;3077;50.922;6.584;2023-05-07T13:34:24;18.70;99.90
6098;DHT22;3077;50.922;6.584;2023-05-07T13:36:49;18.60;99.90
6098;DHT22;3077;50.922;6.584;2023-05-07T13:39:15;18.40;99.90
6098;DHT22;3077;50.922;6.584;2023-05-07T13:41:41;18.30;99.90
6098;DHT22;3077;50.922;6.584;2023-05-07T13:44:07;18.10;99.90
6098;DHT22;3077;50.922;6.584;2023-05-07T13:46:33;18.00;99.90
6098;DHT22;3077;50.922;6.584;2023-05-07T13:48:58;18.00;99.90
6098;DHT22;3077;50.922;6.584;2023-05-07T13:51:24;17.90;99.90
6098;DHT22;3077;50.922;6.584;2023-05-07T13:53:50;17.80;99.90
6098;DHT22;3077;50.922;6.584;2023-05-07T13:56:15;17.80;99.90
6098;DHT22;3077;50.922;6.584;2023-05-07T13:58:41;17.70;99.90
6098;DHT22;3077;50.922;6.584;2023-05-07T14:01:07;17.70;99.90
6098;DHT22;3077;50.922;6.584;2023-05-07T14:03:32;17.70;99.90
6098;DHT22;3077;50.922;6.584;2023-05-07T14:05:59;17.90;99.90
6098;DHT22;3077;50.922;6.584;2023-05-07T14:08:27;18.00;99.90
6098;DHT22;3077;50.922;6.584;2023-05-07T14:10:52;18.20;99.90
6098;DHT22;3077;50.922;6.584;2023-05-07T14:13:18;18.20;99.90
6098;DHT22;3077;50.922;6.584;2023-05-07T14:15:44;18.30;99.90
6098;DHT22;3077;50.922;6.584;2023-05-07T14:18:14;18.40;99.90
6098;DHT22;3077;50.922;6.584;2023-05-07T14:20:40;18.60;99.90
6098;DHT22;3077;50.922;6.584;2023-05-07T14:23:06;18.60;99.90
6098;DHT22;3077;50.922;6.584;2023-05-07T14:25:32;18.50;99.90
6098;DHT22;3077;50.922;6.584;2023-05-07T14:27:57;18.60;99.90
6098;DHT22;3077;50.922;6.584;2023-05-07T14:30:23;18.70;99.90
6098;DHT22;3077;50.922;6.584;2023-05-07T14:32:50;18.90;99.90
6098;DHT22;3077;50.922;6.584;2023-05-07T14:35:16;19.00;99.90
6098;DHT22;3077;50.922;6.584;2023-05-07T14:37:42;19.10;99.90
6098;DHT22;3077;50.922;6.584;2023-05-07T14:40:08;19.20;99.90
6098;DHT22;3077;50.922;6.584;2023-05-07T14:42:34;19.30;99.90
6098;DHT22;3077;50.922;6.584;2023-05-07T14:45:02;19.50;99.90
6098;DHT22;3077;50.922;6.584;2023-05-07T15:08:18;20.90;99.90
6098;DHT22;3077;50.922;6.584;2023-05-07T15:10:43;19.80;99.90
6098;DHT22;3077;50.922;6.584;2023-05-07T15:13:10;19.90;99.90
6098;DHT22;3077;50.922;6.584;2023-05-07T15:15:37;19.90;99.90
6098;DHT22;3077;50.922;6.584;2023-05-07T15:18:03;20.00;99.90
6098;DHT22;3077;50.922;6.584;2023-05-07T15:20:29;20.00;99.90
6098;DHT22;3077;50.922;6.584;2023-05-07T15:22:55;20.10;99.90
6098;DHT22;3077;50.922;6.584;2023-05-07T15:25:21;20.10;99.90
6098;DHT22;3077;50.922;6.584;2023-05-07T15:27:47;20.10;99.90
6098;DHT22;3077;50.922;6.584;2023-05-07T15:30:13;20.10;99.90
6098;DHT22;3077;50.922;6.584;2023-05-07T15:32:40;20.10;99.90
6098;DHT22;3077;50.922;6.584;2023-05-07T15:35:06;20.10;99.90
6098;DHT22;3077;50.922;6.584;2023-05-07T15:37:32;20.00;99.90
6098;DHT22;3077;50.922;6.584;2023-05-07T15:39:57;19.90;99.90
6098;DHT22;3077;50.922;6.584;2023-05-07T15:42:23;19.90;99.90
6098;DHT22;3077;50.922;6.584;2023-05-07T15:44:49;19.90;99.90
6098;DHT22;3077;50.922;6.584;2023-05-07T15:47:15;19.90;99.90
6098;DHT22;3077;50.922;6.584;2023-05-07T15:49:41;20.00;99.90
6098;DHT22;3077;50.922;6.584;2023-05-07T15:52:07;20.20;99.90
6098;DHT22;3077;50.922;6.584;2023-05-07T15:54:35;20.30;99.90
6098;DHT22;3077;50.922;6.584;2023-05-07T15:57:03;20.30;99.90
6098;DHT22;3077;50.922;6.584;2023-05-07T15:59:29;20.30;99.90
6098;DHT22;3077;50.922;6.584;2023-05-07T16:01:54;20.30;99.90
6098;DHT22;3077;50.922;6.584;2023-05-07T16:04:20;20.30;99.90
6098;DHT22;3077;50.922;6.584;2023-05-07T16:06:46;20.40;99.90
6098;DHT22;3077;50.922;6.584;2023-05-07T16:09:13;20.40;99.90
6098;DHT22;3077;50.922;6.584;2023-05-07T16:11:38;20.30;99.90
6098;DHT22;3077;50.922;6.584;2023-05-07T16:14:06;20.10;99.90
6098;DHT22;3077;50.922;6.584;2023-05-07T16:16:33;20.10;99.90
6098;DHT22;3077;50.922;6.584;2023-05-07T16:18:59;20.00;99.90
6098;DHT22;3077;50.922;6.584;2023-05-07T16:21:24;19.90;99.90
6098;DHT22;3077;50.922;6.584;2023-05-07T16:23:50;19.70;99.90
6098;DHT22;3077;50.922;6.584;2023-05-07T16:26:16;19.70;99.90
6098;DHT22;3077;50.922;6.584;2023-05-07T16:28:42;19.60;99.90
6098;DHT22;3077;50.922;6.584;2023-05-07T16:31:08;19.60;99.90
6098;DHT22;3077;50.922;6.584;2023-05-07T16:33:34;19.50;99.90
6098;DHT22;3077;50.922;6.584;2023-05-07T16:35:59;19.50;99.90